createdAt,value
2023-01-10T00:00:24.520Z,7.38
2023-01-10T00:02:52.176Z,5.90
2023-01-10T00:05:19.190Z,7.45
2023-01-10T00:07:46.375Z,6.20
2023-01-10T00:10:14.361Z,4.50
2023-01-10T00:13:00.035Z,5.93
2023-01-10T00:15:26.731Z,7.18
2023-01-10T00:17:53.483Z,3.97
2023-01-10T00:20:20.599Z,5.25
2023-01-10T00:22:47.187Z,4.25
2023-01-10T00:25:13.762Z,3.50
2023-01-10T00:27:40.839Z,3.65
2023-01-10T00:30:14.501Z,5.90
2023-01-10T00:32:46.123Z,3.45
2023-01-10T00:35:13.678Z,4.15
2023-01-10T00:37:40.845Z,3.67
2023-01-10T00:40:09.346Z,5.55
2023-01-10T00:42:55.938Z,6.63
2023-01-10T00:45:25.177Z,4.75
2023-01-10T00:47:52.380Z,6.88
2023-01-10T00:50:19.360Z,5.70
2023-01-10T00:52:46.940Z,5.90
2023-01-10T00:55:13.696Z,4.22
2023-01-10T00:57:40.376Z,4.85
2023-01-10T01:00:09.396Z,4.47
2023-01-10T01:02:36.840Z,4.38
2023-01-10T01:05:04.647Z,4.90
2023-01-10T01:07:31.291Z,5.28
2023-01-10T01:10:16.615Z,4.93
2023-01-10T01:12:43.228Z,5.55
2023-01-10T01:15:10.089Z,5.72
2023-01-10T01:17:36.791Z,5.43
2023-01-10T01:20:04.018Z,5.22
2023-01-10T01:22:30.808Z,4.88
2023-01-10T01:24:57.570Z,5.45
2023-01-10T01:27:24.195Z,4.72
2023-01-10T01:29:51.109Z,3.65
2023-01-10T01:32:17.734Z,3.53
2023-01-10T01:34:44.926Z,5.72
2023-01-10T01:37:11.522Z,4.95
2023-01-10T01:39:38.248Z,6.95
2023-01-10T01:42:05.904Z,4.00
2023-01-10T01:44:36.089Z,3.70
2023-01-10T01:47:11.692Z,5.32
2023-01-10T01:49:41.467Z,4.20
2023-01-10T01:52:12.383Z,4.97
2023-01-10T01:54:39.148Z,2.60
2023-01-10T01:57:10.353Z,5.78
2023-01-10T01:59:40.878Z,4.90
2023-01-10T02:02:12.970Z,5.32
2023-01-10T02:04:45.616Z,4.07
2023-01-10T02:07:13.609Z,4.68
2023-01-10T02:10:00.216Z,3.40
2023-01-10T02:12:27.917Z,7.60
2023-01-10T02:14:54.878Z,2.67
2023-01-10T02:17:21.472Z,4.05
2023-01-10T02:19:53.890Z,5.65
2023-01-10T02:23:07.148Z,3.65
2023-01-10T02:25:42.633Z,2.65
2023-01-10T02:28:27.211Z,2.85
2023-01-10T02:34:13.599Z,6.03
2023-01-10T02:37:07.607Z,2.35
2023-01-10T02:39:49.412Z,4.67
2023-01-10T02:42:20.888Z,5.20
2023-01-10T02:45:01.372Z,5.68
2023-01-10T02:47:35.661Z,4.38
2023-01-10T02:50:42.544Z,4.53
2023-01-10T02:53:20.807Z,3.92
2023-01-10T02:56:21.752Z,4.80
2023-01-10T02:59:15.995Z,4.10
2023-01-10T03:02:04.561Z,5.90
2023-01-10T03:05:24.083Z,2.67
2023-01-10T03:08:16.230Z,2.10
2023-01-10T03:10:52.704Z,3.55
2023-01-10T03:13:53.849Z,3.83
2023-01-10T03:16:25.209Z,6.28
2023-01-10T03:18:57.707Z,3.53
2023-01-10T03:21:25.443Z,4.45
2023-01-10T03:23:54.935Z,2.90
2023-01-10T03:26:27.425Z,5.25
2023-01-10T03:28:58.134Z,6.43
2023-01-10T03:31:41.868Z,5.22
2023-01-10T03:34:09.133Z,7.27
2023-01-10T03:37:07.296Z,3.38
2023-01-10T03:40:08.230Z,2.90
2023-01-10T03:43:06.858Z,6.15
2023-01-10T03:45:41.574Z,5.47
2023-01-10T03:48:08.684Z,3.13
2023-01-10T03:50:36.104Z,7.63
2023-01-10T03:53:02.833Z,4.18
2023-01-10T03:55:30.510Z,4.82
2023-01-10T03:57:57.493Z,3.95
2023-01-10T04:00:24.551Z,4.00
2023-01-10T04:02:51.363Z,4.90
2023-01-10T04:05:17.985Z,6.40
2023-01-10T04:07:44.831Z,4.63
2023-01-10T04:10:11.763Z,6.10
2023-01-10T04:12:38.388Z,3.08
2023-01-10T04:15:05.742Z,5.35
2023-01-10T04:17:32.969Z,7.53
2023-01-10T04:19:59.798Z,6.30
2023-01-10T04:22:26.503Z,7.45
2023-01-10T04:24:54.104Z,4.18
2023-01-10T04:27:22.131Z,7.25
2023-01-10T04:29:48.834Z,4.63
2023-01-10T04:32:15.565Z,6.28
2023-01-10T04:34:42.287Z,6.63
2023-01-10T04:37:09.095Z,6.75
2023-01-10T04:39:35.834Z,7.82
2023-01-10T04:42:02.423Z,5.35
2023-01-10T04:44:29.046Z,4.20
2023-01-10T04:46:55.694Z,5.53
2023-01-10T04:49:22.335Z,3.60
2023-01-10T04:51:49.017Z,5.82
2023-01-10T04:54:15.707Z,8.43
2023-01-10T04:56:42.525Z,6.50
2023-01-10T04:59:10.343Z,5.68
2023-01-10T05:01:39.429Z,6.15
2023-01-10T05:04:06.680Z,7.15
2023-01-10T05:06:33.860Z,7.15
2023-01-10T05:09:00.550Z,6.85
2023-01-10T05:11:27.449Z,6.85
2023-01-10T05:13:54.237Z,4.85
2023-01-10T05:16:21.196Z,4.82
2023-01-10T05:18:47.781Z,7.75
2023-01-10T05:21:15.728Z,6.07
2023-01-10T05:23:42.945Z,6.93
2023-01-10T05:26:12.402Z,5.75
2023-01-10T05:28:39.634Z,6.80
2023-01-10T05:31:10.029Z,5.85
2023-01-10T05:33:36.856Z,11.82
2023-01-10T05:36:05.401Z,11.23
2023-01-10T05:38:33.153Z,8.02
2023-01-10T05:41:00.585Z,5.63
2023-01-10T05:43:28.089Z,7.05
2023-01-10T05:45:54.895Z,8.52
2023-01-10T05:48:21.533Z,7.82
2023-01-10T05:50:52.605Z,6.82
2023-01-10T05:53:19.874Z,6.05
2023-01-10T05:55:57.511Z,13.43
2023-01-10T05:58:24.229Z,7.85
2023-01-10T06:00:51.051Z,7.75
2023-01-10T06:03:18.452Z,10.75
2023-01-10T06:05:47.751Z,9.80
2023-01-10T06:08:15.622Z,7.72
2023-01-10T06:10:43.247Z,8.25
2023-01-10T06:13:09.990Z,8.55
2023-01-10T06:15:37.693Z,9.23
2023-01-10T06:18:04.647Z,11.05
2023-01-10T06:20:31.475Z,10.80
2023-01-10T06:22:58.908Z,14.15
2023-01-10T06:25:26.002Z,10.75
2023-01-10T06:27:52.761Z,10.90
2023-01-10T06:30:20.152Z,10.65
2023-01-10T06:32:47.352Z,12.43
2023-01-10T06:35:14.189Z,12.15
2023-01-10T06:37:40.903Z,7.85
2023-01-10T06:40:08.516Z,11.13
2023-01-10T06:42:35.167Z,10.40
2023-01-10T06:45:02.007Z,10.40
2023-01-10T06:47:28.734Z,8.65
2023-01-10T06:49:55.415Z,11.50
2023-01-10T06:52:22.124Z,10.60
2023-01-10T06:54:49.632Z,7.93
2023-01-10T06:57:16.458Z,9.18
2023-01-10T06:59:43.217Z,5.97
2023-01-10T07:02:15.359Z,7.65
2023-01-10T07:04:42.258Z,7.95
2023-01-10T07:07:09.094Z,8.68
2023-01-10T07:09:35.706Z,10.15
2023-01-10T07:12:02.304Z,11.82
2023-01-10T07:14:29.004Z,10.10
2023-01-10T07:16:55.973Z,7.53
2023-01-10T07:19:22.796Z,9.80
2023-01-10T07:21:49.495Z,10.50
2023-01-10T07:24:16.221Z,10.73
2023-01-10T07:26:42.946Z,9.57
2023-01-10T07:29:09.668Z,10.48
2023-01-10T07:31:36.424Z,11.27
2023-01-10T07:34:03.164Z,10.85
2023-01-10T07:36:30.163Z,8.63
2023-01-10T07:38:56.895Z,13.07
2023-01-10T07:41:23.495Z,9.30
2023-01-10T07:43:50.249Z,9.40
2023-01-10T07:46:17.360Z,12.65
2023-01-10T07:48:45.093Z,12.32
2023-01-10T07:51:11.798Z,9.77
2023-01-10T07:53:38.742Z,13.23
2023-01-10T07:56:06.436Z,10.00
2023-01-10T07:58:33.683Z,10.10
2023-01-10T08:01:01.316Z,10.50
2023-01-10T08:03:30.050Z,8.32
2023-01-10T08:06:00.591Z,9.88
2023-01-10T08:08:27.418Z,12.07
2023-01-10T08:10:54.425Z,14.25
2023-01-10T08:13:21.445Z,10.18
2023-01-10T08:15:50.534Z,10.90
2023-01-10T08:18:17.403Z,12.20
2023-01-10T08:20:44.011Z,14.48
2023-01-10T08:23:10.764Z,15.32
2023-01-10T08:25:39.481Z,12.93
2023-01-10T08:28:06.531Z,11.43
2023-01-10T08:30:33.238Z,8.98
2023-01-10T08:33:03.039Z,13.38
2023-01-10T08:35:30.026Z,12.93
2023-01-10T08:38:00.529Z,13.90
2023-01-10T08:40:27.442Z,10.45
2023-01-10T08:43:01.711Z,10.60
2023-01-10T08:47:55.387Z,11.93
2023-01-10T08:50:22.763Z,11.27
2023-01-10T08:52:49.434Z,10.88
2023-01-10T08:55:16.843Z,16.45
2023-01-10T08:57:43.686Z,12.90
2023-01-10T09:00:12.764Z,10.52
2023-01-10T09:02:40.182Z,10.40
2023-01-10T09:05:12.286Z,12.55
2023-01-10T09:07:49.042Z,11.82
2023-01-10T09:10:16.553Z,10.63
2023-01-10T09:12:55.211Z,12.05
2023-01-10T09:15:22.954Z,12.95
2023-01-10T09:17:52.701Z,9.57
2023-01-10T09:20:19.491Z,12.05
2023-01-10T09:22:46.112Z,15.73
2023-01-10T09:25:12.812Z,24.08
2023-01-10T09:27:39.468Z,16.25
2023-01-10T09:30:06.813Z,10.07
2023-01-10T09:32:33.935Z,8.38
2023-01-10T09:35:00.915Z,10.23
2023-01-10T09:37:27.692Z,9.35
2023-01-10T09:39:54.343Z,13.65
2023-01-10T09:42:38.574Z,9.27
2023-01-10T09:47:56.535Z,7.53
2023-01-10T09:50:55.100Z,8.65
2023-01-10T09:53:24.235Z,17.08
2023-01-10T09:56:00.555Z,11.73
2023-01-10T09:58:30.214Z,9.38
2023-01-10T10:00:59.466Z,10.15
2023-01-10T10:03:33.321Z,10.13
2023-01-10T10:06:11.284Z,10.43
2023-01-10T10:08:44.798Z,10.88
2023-01-10T10:11:46.976Z,9.63
2023-01-10T10:14:34.342Z,10.88
2023-01-10T10:17:32.439Z,11.20
2023-01-10T10:20:24.934Z,9.18
2023-01-10T10:23:09.102Z,13.73
2023-01-10T10:25:47.528Z,5.82
2023-01-10T10:28:53.537Z,5.03
2023-01-10T10:31:51.603Z,10.85
2023-01-10T10:34:26.081Z,10.23
2023-01-10T10:36:56.524Z,8.98
2023-01-10T10:39:32.621Z,9.00
2023-01-10T10:42:00.570Z,10.80
2023-01-10T10:44:41.327Z,6.38
2023-01-10T10:47:15.576Z,6.55
2023-01-10T10:52:20.423Z,10.45
2023-01-10T10:54:47.923Z,9.75
2023-01-10T10:57:14.756Z,12.35
2023-01-10T10:59:44.503Z,7.28
2023-01-10T11:02:25.754Z,8.18
2023-01-10T11:04:55.777Z,8.40
2023-01-10T11:07:23.362Z,8.88
2023-01-10T11:10:09.024Z,10.88
2023-01-10T11:12:36.508Z,9.40
2023-01-10T11:15:03.962Z,10.32
2023-01-10T11:17:32.500Z,11.60
2023-01-10T11:20:00.249Z,11.10
2023-01-10T11:22:29.905Z,9.88
2023-01-10T11:25:01.132Z,10.10
2023-01-10T11:27:33.296Z,11.85
2023-01-10T11:30:07.813Z,7.85
2023-01-10T11:32:37.590Z,9.93
2023-01-10T11:35:16.392Z,11.55
2023-01-10T11:37:43.378Z,8.55
2023-01-10T11:40:18.205Z,17.70
2023-01-10T11:42:45.545Z,14.82
2023-01-10T11:45:23.026Z,14.77
2023-01-10T11:47:57.292Z,9.82
2023-01-10T11:50:36.174Z,14.15
2023-01-10T11:53:04.847Z,10.35
2023-01-10T11:55:33.341Z,9.25
2023-01-10T11:58:04.062Z,11.00
2023-01-10T12:00:34.262Z,11.70
2023-01-10T12:03:01.697Z,14.57
2023-01-10T12:05:28.956Z,9.63
2023-01-10T12:08:06.855Z,11.48
2023-01-10T12:10:34.746Z,9.20
2023-01-10T12:13:14.279Z,9.30
2023-01-10T12:15:41.437Z,9.50
2023-01-10T12:18:08.220Z,11.13
2023-01-10T12:20:58.147Z,13.45
2023-01-10T12:23:25.541Z,6.72
2023-01-10T12:26:00.293Z,10.05
2023-01-10T12:28:34.803Z,8.95
2023-01-10T12:31:02.529Z,14.65
2023-01-10T12:33:39.009Z,10.15
2023-01-10T12:36:16.310Z,9.13
2023-01-10T12:39:04.943Z,12.85
2023-01-10T12:42:18.665Z,11.65
2023-01-10T12:44:47.058Z,8.07
2023-01-10T12:47:31.268Z,13.68
2023-01-10T12:52:45.725Z,13.80
2023-01-10T12:55:17.725Z,9.50
2023-01-10T12:57:51.800Z,11.68
2023-01-10T13:00:30.959Z,11.20
2023-01-10T13:03:00.193Z,12.55
2023-01-10T13:05:30.380Z,11.35
2023-01-10T13:08:05.364Z,15.23
2023-01-10T13:10:33.957Z,11.55
2023-01-10T13:13:15.810Z,16.73
2023-01-10T13:15:49.709Z,15.90
2023-01-10T13:18:23.991Z,20.48
2023-01-10T13:23:30.402Z,14.88
2023-01-10T13:26:04.855Z,11.95
2023-01-10T13:28:33.949Z,11.45
2023-01-10T13:31:03.324Z,14.18
2023-01-10T13:33:33.360Z,8.98
2023-01-10T13:36:12.388Z,11.32
2023-01-10T13:38:49.162Z,10.27
2023-01-10T13:41:34.871Z,11.50
2023-01-10T13:44:07.220Z,10.00
2023-01-10T13:46:36.836Z,10.70
2023-01-10T13:49:24.144Z,13.15
2023-01-10T13:52:42.007Z,8.07
2023-01-10T13:55:34.201Z,14.80
2023-01-10T13:58:11.030Z,8.90
2023-01-10T14:01:17.669Z,11.73
2023-01-10T14:03:58.035Z,8.68
2023-01-10T14:06:42.668Z,9.20
2023-01-10T14:09:44.924Z,10.95
2023-01-10T14:12:25.005Z,10.90
2023-01-10T14:14:58.523Z,11.93
2023-01-10T14:17:28.479Z,10.98
2023-01-10T14:20:20.821Z,10.63
2023-01-10T14:23:04.415Z,10.73
2023-01-10T14:25:34.356Z,12.23
2023-01-10T14:28:01.433Z,9.73
2023-01-10T14:30:33.700Z,8.23
2023-01-10T14:33:05.636Z,10.30
2023-01-10T14:35:39.784Z,9.23
2023-01-10T14:40:48.711Z,12.18
2023-01-10T14:43:17.358Z,12.45
2023-01-10T14:46:14.392Z,11.25
2023-01-10T14:48:51.348Z,9.30
2023-01-10T14:51:23.296Z,12.40
2023-01-10T14:54:01.551Z,13.38
2023-01-10T14:56:39.054Z,10.13
2023-01-10T14:59:34.804Z,14.10
2023-01-10T15:02:03.944Z,10.95
2023-01-10T15:04:33.811Z,10.50
2023-01-10T15:07:11.913Z,12.05
2023-01-10T15:09:39.267Z,9.63
2023-01-10T15:12:08.120Z,8.52
2023-01-10T15:14:38.731Z,11.40
2023-01-10T15:17:06.832Z,13.35
2023-01-10T15:19:36.528Z,18.52
2023-01-10T15:22:04.855Z,12.18
2023-01-10T15:24:33.398Z,12.45
2023-01-10T15:27:09.120Z,17.33
2023-01-10T15:29:37.183Z,9.45
2023-01-10T15:32:16.278Z,12.02
2023-01-10T15:34:42.993Z,13.07
2023-01-10T15:37:20.107Z,13.68
2023-01-10T15:39:47.550Z,12.45
2023-01-10T15:42:14.493Z,12.32
2023-01-10T15:44:48.780Z,13.18
2023-01-10T15:47:41.766Z,10.93
2023-01-10T15:50:40.874Z,12.70
2023-01-10T15:53:12.226Z,11.80
2023-01-10T15:55:46.179Z,17.05
2023-01-10T15:58:24.127Z,12.93
2023-01-10T16:00:52.476Z,16.27
2023-01-10T16:04:11.977Z,15.90
2023-01-10T16:06:39.097Z,12.55
2023-01-10T16:09:07.717Z,12.13
2023-01-10T16:12:06.794Z,18.10
2023-01-10T16:14:33.907Z,14.20
2023-01-10T16:17:01.252Z,15.02
2023-01-10T16:19:28.630Z,14.13
2023-01-10T16:21:59.855Z,13.40
2023-01-10T16:24:29.202Z,15.75
2023-01-10T16:26:56.984Z,11.43
2023-01-10T16:29:24.505Z,11.52
2023-01-10T16:31:54.027Z,11.75
2023-01-10T16:34:21.191Z,14.57
2023-01-10T16:36:48.077Z,9.80
2023-01-10T16:39:17.784Z,10.32
2023-01-10T16:42:03.680Z,11.82
2023-01-10T16:44:30.871Z,11.98
2023-01-10T16:46:57.559Z,11.48
2023-01-10T16:49:24.349Z,15.70
2023-01-10T16:51:51.166Z,15.85
2023-01-10T16:54:22.967Z,13.80
2023-01-10T16:56:49.936Z,11.52
2023-01-10T16:59:18.286Z,13.93
2023-01-10T17:01:50.858Z,8.50
2023-01-10T17:04:22.614Z,11.05
2023-01-10T17:06:49.304Z,16.73
2023-01-10T17:09:27.502Z,16.45
2023-01-10T17:12:02.532Z,14.93
2023-01-10T17:14:36.504Z,13.82
2023-01-10T17:17:04.113Z,12.40
2023-01-10T17:19:30.961Z,13.00
2023-01-10T17:21:57.833Z,14.50
2023-01-10T17:24:24.777Z,12.82
2023-01-10T17:26:51.544Z,12.30
2023-01-10T17:29:18.229Z,15.07
2023-01-10T17:31:45.000Z,11.43
2023-01-10T17:34:11.707Z,15.10
2023-01-10T17:36:40.060Z,12.48
2023-01-10T17:39:07.188Z,18.73
2023-01-10T17:41:34.438Z,12.20
2023-01-10T17:44:01.735Z,13.82
2023-01-10T17:46:28.589Z,15.90
2023-01-10T17:48:55.271Z,10.25
2023-01-10T17:51:25.026Z,16.52
2023-01-10T17:53:51.946Z,14.07
2023-01-10T17:56:18.632Z,13.48
2023-01-10T17:58:45.222Z,19.08
2023-01-10T18:01:24.803Z,14.35
2023-01-10T18:03:52.479Z,12.68
2023-01-10T18:06:24.021Z,10.07
2023-01-10T18:08:51.506Z,13.93
2023-01-10T18:11:18.238Z,21.13
2023-01-10T18:13:44.953Z,18.27
2023-01-10T18:16:11.857Z,15.82
2023-01-10T18:18:39.197Z,13.40
2023-01-10T18:21:12.860Z,11.45
2023-01-10T18:23:39.511Z,11.05
2023-01-10T18:26:08.467Z,16.70
2023-01-10T18:28:42.307Z,12.35
2023-01-10T18:33:37.114Z,9.88
2023-01-10T18:36:05.363Z,19.08
2023-01-10T18:38:36.919Z,12.05
2023-01-10T18:41:04.305Z,11.40
2023-01-10T18:43:31.528Z,15.32
2023-01-10T18:46:01.267Z,9.10
2023-01-10T18:48:27.941Z,11.10
2023-01-10T18:50:55.472Z,10.95
2023-01-10T18:53:22.473Z,14.85
2023-01-10T18:55:56.839Z,10.55
2023-01-10T18:58:28.202Z,20.00
2023-01-10T19:00:54.868Z,17.15
2023-01-10T19:03:21.738Z,10.48
2023-01-10T19:05:48.621Z,10.88
2023-01-10T19:08:15.627Z,14.38
2023-01-10T19:11:03.591Z,15.50
2023-01-10T19:13:30.424Z,11.80
2023-01-10T19:16:14.540Z,13.07
2023-01-10T19:18:41.860Z,11.10
2023-01-10T19:21:15.787Z,13.48
2023-01-10T19:23:48.021Z,10.05
2023-01-10T19:26:15.080Z,11.80
2023-01-10T19:28:45.012Z,11.20
2023-01-10T19:31:23.678Z,13.07
2023-01-10T19:33:51.063Z,11.70
2023-01-10T19:36:19.840Z,7.85
2023-01-10T19:38:46.517Z,9.57
2023-01-10T19:41:16.612Z,6.93
2023-01-10T19:43:43.235Z,9.07
2023-01-10T19:46:11.413Z,10.15
2023-01-10T19:48:38.560Z,15.68
2023-01-10T19:51:09.837Z,12.90
2023-01-10T19:53:37.867Z,9.13
2023-01-10T19:56:09.670Z,11.98
2023-01-10T19:58:37.460Z,10.98
2023-01-10T20:01:12.532Z,8.43
2023-01-10T20:03:42.386Z,10.55
2023-01-10T20:06:14.431Z,7.03
2023-01-10T20:08:41.530Z,10.18
2023-01-10T20:11:08.673Z,10.82
2023-01-10T20:13:38.294Z,13.30
2023-01-10T20:16:05.792Z,9.57
2023-01-10T20:18:32.683Z,7.38
2023-01-10T20:20:59.477Z,5.07
2023-01-10T20:23:26.143Z,10.75
2023-01-10T20:26:02.481Z,4.97
2023-01-10T20:28:30.179Z,8.32
2023-01-10T20:30:56.934Z,9.85
2023-01-10T20:33:26.724Z,6.70
2023-01-10T20:35:58.350Z,10.75
2023-01-10T20:38:26.513Z,9.55
2023-01-10T20:41:01.029Z,8.70
2023-01-10T20:43:28.230Z,8.88
2023-01-10T20:45:54.947Z,8.75
2023-01-10T20:48:21.934Z,9.23
2023-01-10T20:50:49.340Z,9.00
2023-01-10T20:53:16.252Z,8.18
2023-01-10T20:55:45.366Z,7.68
2023-01-10T20:58:13.546Z,8.70
2023-01-10T21:00:40.397Z,6.57
2023-01-10T21:03:07.257Z,12.95
2023-01-10T21:05:36.213Z,9.23
2023-01-10T21:08:03.551Z,9.60
2023-01-10T21:10:30.307Z,9.30
2023-01-10T21:12:59.879Z,8.05
2023-01-10T21:15:26.538Z,6.72
2023-01-10T21:17:53.178Z,8.10
2023-01-10T21:20:20.032Z,8.38
2023-01-10T21:22:46.900Z,4.65
2023-01-10T21:25:13.707Z,7.00
2023-01-10T21:27:40.716Z,8.20
2023-01-10T21:30:09.306Z,6.10
2023-01-10T21:32:35.952Z,8.88
2023-01-10T21:35:02.584Z,8.23
2023-01-10T21:37:29.153Z,8.60
2023-01-10T21:39:56.399Z,6.50
2023-01-10T21:42:34.962Z,8.85
2023-01-10T21:45:02.230Z,9.75
2023-01-10T21:47:28.906Z,7.88
2023-01-10T21:49:55.538Z,6.53
2023-01-10T21:52:22.175Z,7.28
2023-01-10T21:54:48.785Z,7.57
2023-01-10T21:57:19.349Z,10.07
2023-01-10T21:59:45.883Z,5.97
2023-01-10T22:02:15.297Z,4.63
2023-01-10T22:04:46.521Z,7.05
2023-01-10T22:07:13.800Z,6.53
2023-01-10T22:09:40.475Z,7.00
2023-01-10T22:12:07.679Z,9.88
2023-01-10T22:14:34.331Z,6.18
2023-01-10T22:17:01.202Z,5.80
2023-01-10T22:19:28.007Z,6.60
2023-01-10T22:21:54.690Z,7.45
2023-01-10T22:24:21.324Z,7.45
2023-01-10T22:26:49.387Z,4.25
2023-01-10T22:29:17.116Z,4.45
2023-01-10T22:31:43.868Z,7.38
2023-01-10T22:34:10.553Z,4.18
2023-01-10T22:36:37.133Z,5.93
2023-01-10T22:39:06.250Z,5.72
2023-01-10T22:41:33.511Z,4.63
2023-01-10T22:44:00.557Z,9.35
2023-01-10T22:46:27.728Z,7.13
2023-01-10T22:48:54.299Z,6.47
2023-01-10T22:51:22.329Z,5.47
2023-01-10T22:53:50.237Z,5.88
2023-01-10T22:56:17.023Z,5.60
2023-01-10T22:58:48.025Z,4.90
2023-01-10T23:01:16.609Z,7.60
2023-01-10T23:03:43.648Z,6.22
2023-01-10T23:06:11.227Z,6.88
2023-01-10T23:08:39.416Z,5.35
2023-01-10T23:11:06.410Z,3.03
2023-01-10T23:13:33.845Z,5.00
2023-01-10T23:16:06.534Z,6.60
2023-01-10T23:18:33.711Z,9.50
2023-01-10T23:21:00.713Z,8.35
2023-01-10T23:23:27.675Z,3.70
2023-01-10T23:26:03.822Z,4.25
2023-01-10T23:28:33.819Z,4.63
2023-01-10T23:31:00.543Z,3.22
2023-01-10T23:33:27.232Z,6.35
2023-01-10T23:35:53.916Z,5.30
2023-01-10T23:38:20.638Z,4.40
2023-01-10T23:40:47.234Z,5.80
2023-01-10T23:43:14.560Z,5.45
2023-01-10T23:45:43.421Z,3.45
2023-01-10T23:48:10.550Z,5.03
2023-01-10T23:50:37.314Z,2.83
2023-01-10T23:53:04.399Z,3.28
2023-01-10T23:55:32.066Z,5.65
2023-01-10T23:57:59.081Z,2.80
